sensor_id;sensor_type;location;lat;lon;timestamp;P1;durP1;ratioP1;P2;durP2;ratioP2
9665;SDS011;4871;52.004;5.924;2023-02-15T00:00:06;23.70;;;14.50;;
9665;SDS011;4871;52.004;5.924;2023-02-15T00:01:04;23.70;;;14.50;;
9665;SDS011;4871;52.004;5.924;2023-02-15T00:02:04;23.70;;;14.50;;
9665;SDS011;4871;52.004;5.924;2023-02-15T00:03:00;23.70;;;14.50;;
9665;SDS011;4871;52.004;5.924;2023-02-15T00:04:07;23.70;;;14.50;;
9665;SDS011;4871;52.004;5.924;2023-02-15T00:05:00;23.70;;;14.50;;
9665;SDS011;4871;52.004;5.924;2023-02-15T00:06:05;23.70;;;14.50;;
9665;SDS011;4871;52.004;5.924;2023-02-15T00:07:00;23.70;;;14.50;;
9665;SDS011;4871;52.004;5.924;2023-02-15T00:08:04;23.70;;;14.50;;
9665;SDS011;4871;52.004;5.924;2023-02-15T00:09:00;23.70;;;14.50;;
9665;SDS011;4871;52.004;5.924;2023-02-15T00:10:05;23.70;;;14.50;;
9665;SDS011;4871;52.004;5.924;2023-02-15T00:11:04;23.70;;;14.50;;
9665;SDS011;4871;52.004;5.924;2023-02-15T00:12:05;23.70;;;14.50;;
9665;SDS011;4871;52.004;5.924;2023-02-15T00:13:00;23.70;;;14.50;;
9665;SDS011;4871;52.004;5.924;2023-02-15T00:14:05;23.70;;;14.50;;
9665;SDS011;4871;52.004;5.924;2023-02-15T00:15:00;23.70;;;14.50;;
9665;SDS011;4871;52.004;5.924;2023-02-15T00:16:05;23.70;;;14.50;;
9665;SDS011;4871;52.004;5.924;2023-02-15T00:17:00;23.70;;;14.50;;
9665;SDS011;4871;52.004;5.924;2023-02-15T00:18:05;23.70;;;14.50;;
9665;SDS011;4871;52.004;5.924;2023-02-15T00:19:02;23.70;;;14.50;;
9665;SDS011;4871;52.004;5.924;2023-02-15T00:20:06;23.70;;;14.50;;
9665;SDS011;4871;52.004;5.924;2023-02-15T00:21:03;23.70;;;14.50;;
9665;SDS011;4871;52.004;5.924;2023-02-15T00:22:04;23.70;;;14.50;;
9665;SDS011;4871;52.004;5.924;2023-02-15T00:23:00;26.00;;;14.50;;
9665;SDS011;4871;52.004;5.924;2023-02-15T00:24:05;26.00;;;14.50;;
9665;SDS011;4871;52.004;5.924;2023-02-15T00:25:00;26.00;;;14.50;;
9665;SDS011;4871;52.004;5.924;2023-02-15T00:26:04;26.00;;;14.50;;
9665;SDS011;4871;52.004;5.924;2023-02-15T00:27:00;26.00;;;14.50;;
9665;SDS011;4871;52.004;5.924;2023-02-15T00:28:05;26.00;;;14.50;;
9665;SDS011;4871;52.004;5.924;2023-02-15T00:29:00;26.00;;;14.50;;
9665;SDS011;4871;52.004;5.924;2023-02-15T00:30:06;26.00;;;14.50;;
9665;SDS011;4871;52.004;5.924;2023-02-15T00:31:04;26.00;;;14.50;;
9665;SDS011;4871;52.004;5.924;2023-02-15T00:32:04;26.00;;;14.50;;
9665;SDS011;4871;52.004;5.924;2023-02-15T00:33:00;26.00;;;14.50;;
9665;SDS011;4871;52.004;5.924;2023-02-15T00:34:06;26.00;;;14.50;;
9665;SDS011;4871;52.004;5.924;2023-02-15T00:35:00;26.00;;;14.50;;
9665;SDS011;4871;52.004;5.924;2023-02-15T00:36:06;26.00;;;14.50;;
9665;SDS011;4871;52.004;5.924;2023-02-15T00:37:00;26.00;;;14.50;;
9665;SDS011;4871;52.004;5.924;2023-02-15T00:38:04;26.00;;;14.50;;
9665;SDS011;4871;52.004;5.924;2023-02-15T00:39:00;26.00;;;14.50;;
9665;SDS011;4871;52.004;5.924;2023-02-15T00:40:05;26.00;;;14.50;;
9665;SDS011;4871;52.004;5.924;2023-02-15T00:41:01;26.00;;;14.50;;
9665;SDS011;4871;52.004;5.924;2023-02-15T00:42:05;26.00;;;14.50;;
9665;SDS011;4871;52.004;5.924;2023-02-15T00:43:00;26.00;;;14.50;;
9665;SDS011;4871;52.004;5.924;2023-02-15T00:44:06;26.00;;;14.50;;
9665;SDS011;4871;52.004;5.924;2023-02-15T00:45:00;26.00;;;14.50;;
9665;SDS011;4871;52.004;5.924;2023-02-15T00:46:04;26.00;;;14.50;;
9665;SDS011;4871;52.004;5.924;2023-02-15T00:47:00;26.00;;;14.50;;
9665;SDS011;4871;52.004;5.924;2023-02-15T00:48:05;26.00;;;14.50;;
9665;SDS011;4871;52.004;5.924;2023-02-15T00:49:00;26.00;;;14.50;;
9665;SDS011;4871;52.004;5.924;2023-02-15T00:50:05;26.00;;;14.50;;
9665;SDS011;4871;52.004;5.924;2023-02-15T00:51:00;26.00;;;14.50;;
9665;SDS011;4871;52.004;5.924;2023-02-15T00:52:04;26.00;;;14.50;;
9665;SDS011;4871;52.004;5.924;2023-02-15T00:53:00;20.20;;;11.80;;
9665;SDS011;4871;52.004;5.924;2023-02-15T00:54:05;20.20;;;11.80;;
9665;SDS011;4871;52.004;5.924;2023-02-15T00:55:00;20.20;;;11.80;;
9665;SDS011;4871;52.004;5.924;2023-02-15T00:56:04;20.20;;;11.80;;
9665;SDS011;4871;52.004;5.924;2023-02-15T00:57:00;20.20;;;11.80;;
9665;SDS011;4871;52.004;5.924;2023-02-15T00:58:05;20.20;;;11.80;;
9665;SDS011;4871;52.004;5.924;2023-02-15T00:59:00;20.20;;;11.80;;
9665;SDS011;4871;52.004;5.924;2023-02-15T01:00:05;20.20;;;11.80;;
9665;SDS011;4871;52.004;5.924;2023-02-15T01:01:02;20.20;;;11.80;;
9665;SDS011;4871;52.004;5.924;2023-02-15T01:02:06;20.20;;;11.80;;
9665;SDS011;4871;52.004;5.924;2023-02-15T01:03:00;20.20;;;11.80;;
9665;SDS011;4871;52.004;5.924;2023-02-15T01:04:04;20.20;;;11.80;;
9665;SDS011;4871;52.004;5.924;2023-02-15T01:05:00;20.20;;;11.80;;
9665;SDS011;4871;52.004;5.924;2023-02-15T01:06:05;20.20;;;11.80;;
9665;SDS011;4871;52.004;5.924;2023-02-15T01:07:01;20.20;;;11.80;;
9665;SDS011;4871;52.004;5.924;2023-02-15T01:08:05;20.20;;;11.80;;
9665;SDS011;4871;52.004;5.924;2023-02-15T01:09:00;20.20;;;11.80;;
9665;SDS011;4871;52.004;5.924;2023-02-15T01:10:05;20.20;;;11.80;;
9665;SDS011;4871;52.004;5.924;2023-02-15T01:11:02;20.20;;;11.80;;
9665;SDS011;4871;52.004;5.924;2023-02-15T01:12:05;20.20;;;11.80;;
9665;SDS011;4871;52.004;5.924;2023-02-15T01:13:00;20.20;;;11.80;;
9665;SDS011;4871;52.004;5.924;2023-02-15T01:14:05;20.20;;;11.80;;
9665;SDS011;4871;52.004;5.924;2023-02-15T01:15:00;20.20;;;11.80;;
9665;SDS011;4871;52.004;5.924;2023-02-15T01:16:05;20.20;;;11.80;;
9665;SDS011;4871;52.004;5.924;2023-02-15T01:17:00;20.20;;;11.80;;
9665;SDS011;4871;52.004;5.924;2023-02-15T01:18:05;20.20;;;11.80;;
9665;SDS011;4871;52.004;5.924;2023-02-15T01:19:02;20.20;;;11.80;;
9665;SDS011;4871;52.004;5.924;2023-02-15T01:20:06;20.20;;;11.80;;
9665;SDS011;4871;52.004;5.924;2023-02-15T01:21:00;20.20;;;11.80;;
9665;SDS011;4871;52.004;5.924;2023-02-15T01:22:04;20.20;;;11.80;;
9665;SDS011;4871;52.004;5.924;2023-02-15T01:23:00;19.00;;;12.00;;
9665;SDS011;4871;52.004;5.924;2023-02-15T01:24:05;19.00;;;12.00;;
9665;SDS011;4871;52.004;5.924;2023-02-15T01:25:00;19.00;;;12.00;;
9665;SDS011;4871;52.004;5.924;2023-02-15T01:26:06;19.00;;;12.00;;
9665;SDS011;4871;52.004;5.924;2023-02-15T01:27:00;19.00;;;12.00;;
9665;SDS011;4871;52.004;5.924;2023-02-15T01:28:04;19.00;;;12.00;;
9665;SDS011;4871;52.004;5.924;2023-02-15T01:29:00;19.00;;;12.00;;
9665;SDS011;4871;52.004;5.924;2023-02-15T01:30:05;19.00;;;12.00;;
9665;SDS011;4871;52.004;5.924;2023-02-15T01:31:04;19.00;;;12.00;;
9665;SDS011;4871;52.004;5.924;2023-02-15T01:32:05;19.00;;;12.00;;
9665;SDS011;4871;52.004;5.924;2023-02-15T01:33:01;19.00;;;12.00;;
9665;SDS011;4871;52.004;5.924;2023-02-15T01:34:05;19.00;;;12.00;;
9665;SDS011;4871;52.004;5.924;2023-02-15T01:35:00;19.00;;;12.00;;
9665;SDS011;4871;52.004;5.924;2023-02-15T01:36:05;19.00;;;12.00;;
9665;SDS011;4871;52.004;5.924;2023-02-15T01:37:00;19.00;;;12.00;;
9665;SDS011;4871;52.004;5.924;2023-02-15T01:38:05;19.00;;;12.00;;
9665;SDS011;4871;52.004;5.924;2023-02-15T01:39:00;19.00;;;12.00;;
9665;SDS011;4871;52.004;5.924;2023-02-15T01:40:07;19.00;;;12.00;;
9665;SDS011;4871;52.004;5.924;2023-02-15T01:41:10;19.00;;;12.00;;
9665;SDS011;4871;52.004;5.924;2023-02-15T01:42:05;19.00;;;12.00;;
9665;SDS011;4871;52.004;5.924;2023-02-15T01:43:00;19.00;;;12.00;;
9665;SDS011;4871;52.004;5.924;2023-02-15T01:45:01;19.00;;;12.00;;
9665;SDS011;4871;52.004;5.924;2023-02-15T01:46:04;19.00;;;12.00;;
9665;SDS011;4871;52.004;5.924;2023-02-15T01:47:00;19.00;;;12.00;;
9665;SDS011;4871;52.004;5.924;2023-02-15T01:48:05;19.00;;;12.00;;
9665;SDS011;4871;52.004;5.924;2023-02-15T01:49:02;19.00;;;12.00;;
9665;SDS011;4871;52.004;5.924;2023-02-15T01:50:07;19.00;;;12.00;;
9665;SDS011;4871;52.004;5.924;2023-02-15T01:51:00;19.00;;;12.00;;
9665;SDS011;4871;52.004;5.924;2023-02-15T01:52:04;19.00;;;12.00;;
9665;SDS011;4871;52.004;5.924;2023-02-15T01:53:01;22.40;;;13.90;;
9665;SDS011;4871;52.004;5.924;2023-02-15T01:54:06;22.40;;;13.90;;
9665;SDS011;4871;52.004;5.924;2023-02-15T01:55:00;22.40;;;13.90;;
9665;SDS011;4871;52.004;5.924;2023-02-15T01:56:07;22.40;;;13.90;;
9665;SDS011;4871;52.004;5.924;2023-02-15T01:57:00;22.40;;;13.90;;
9665;SDS011;4871;52.004;5.924;2023-02-15T01:58:05;22.40;;;13.90;;
9665;SDS011;4871;52.004;5.924;2023-02-15T01:59:02;22.40;;;13.90;;
9665;SDS011;4871;52.004;5.924;2023-02-15T02:00:06;22.40;;;13.90;;
9665;SDS011;4871;52.004;5.924;2023-02-15T02:01:00;22.40;;;13.90;;
9665;SDS011;4871;52.004;5.924;2023-02-15T02:02:05;22.40;;;13.90;;
9665;SDS011;4871;52.004;5.924;2023-02-15T02:03:00;22.40;;;13.90;;
9665;SDS011;4871;52.004;5.924;2023-02-15T02:04:05;22.40;;;13.90;;
9665;SDS011;4871;52.004;5.924;2023-02-15T02:05:03;22.40;;;13.90;;
9665;SDS011;4871;52.004;5.924;2023-02-15T02:06:04;22.40;;;13.90;;
9665;SDS011;4871;52.004;5.924;2023-02-15T02:07:00;22.40;;;13.90;;
9665;SDS011;4871;52.004;5.924;2023-02-15T02:08:04;22.40;;;13.90;;
9665;SDS011;4871;52.004;5.924;2023-02-15T02:09:00;22.40;;;13.90;;
9665;SDS011;4871;52.004;5.924;2023-02-15T02:10:04;22.40;;;13.90;;
9665;SDS011;4871;52.004;5.924;2023-02-15T02:11:00;22.40;;;13.90;;
9665;SDS011;4871;52.004;5.924;2023-02-15T02:12:05;22.40;;;13.90;;
9665;SDS011;4871;52.004;5.924;2023-02-15T02:13:01;22.40;;;13.90;;
9665;SDS011;4871;52.004;5.924;2023-02-15T02:14:04;22.40;;;13.90;;
9665;SDS011;4871;52.004;5.924;2023-02-15T02:15:00;22.40;;;13.90;;
9665;SDS011;4871;52.004;5.924;2023-02-15T02:16:07;22.40;;;13.90;;
9665;SDS011;4871;52.004;5.924;2023-02-15T02:17:02;22.40;;;13.90;;
9665;SDS011;4871;52.004;5.924;2023-02-15T02:18:08;22.40;;;13.90;;
9665;SDS011;4871;52.004;5.924;2023-02-15T02:19:06;22.40;;;13.90;;
9665;SDS011;4871;52.004;5.924;2023-02-15T02:20:10;22.40;;;13.90;;
9665;SDS011;4871;52.004;5.924;2023-02-15T02:21:05;22.40;;;13.90;;
9665;SDS011;4871;52.004;5.924;2023-02-15T02:22:08;20.20;;;12.50;;
9665;SDS011;4871;52.004;5.924;2023-02-15T02:23:04;20.20;;;12.50;;
9665;SDS011;4871;52.004;5.924;2023-02-15T02:24:14;20.20;;;12.50;;
9665;SDS011;4871;52.004;5.924;2023-02-15T02:25:08;20.20;;;12.50;;
9665;SDS011;4871;52.004;5.924;2023-02-15T02:26:19;20.20;;;12.50;;
9665;SDS011;4871;52.004;5.924;2023-02-15T02:27:09;20.20;;;12.50;;
9665;SDS011;4871;52.004;5.924;2023-02-15T02:28:08;20.20;;;12.50;;
9665;SDS011;4871;52.004;5.924;2023-02-15T02:30:09;20.20;;;12.50;;
9665;SDS011;4871;52.004;5.924;2023-02-15T02:31:05;20.20;;;12.50;;
9665;SDS011;4871;52.004;5.924;2023-02-15T02:32:09;20.20;;;12.50;;
9665;SDS011;4871;52.004;5.924;2023-02-15T02:33:04;20.20;;;12.50;;
9665;SDS011;4871;52.004;5.924;2023-02-15T02:34:05;20.20;;;12.50;;
9665;SDS011;4871;52.004;5.924;2023-02-15T02:35:00;20.20;;;12.50;;
9665;SDS011;4871;52.004;5.924;2023-02-15T02:36:06;20.20;;;12.50;;
9665;SDS011;4871;52.004;5.924;2023-02-15T02:37:02;20.20;;;12.50;;
9665;SDS011;4871;52.004;5.924;2023-02-15T02:38:11;20.20;;;12.50;;
9665;SDS011;4871;52.004;5.924;2023-02-15T02:39:04;20.20;;;12.50;;
9665;SDS011;4871;52.004;5.924;2023-02-15T02:40:07;20.20;;;12.50;;
9665;SDS011;4871;52.004;5.924;2023-02-15T02:41:02;20.20;;;12.50;;
9665;SDS011;4871;52.004;5.924;2023-02-15T02:42:05;20.20;;;12.50;;
9665;SDS011;4871;52.004;5.924;2023-02-15T02:43:01;20.20;;;12.50;;
9665;SDS011;4871;52.004;5.924;2023-02-15T02:44:05;20.20;;;12.50;;
9665;SDS011;4871;52.004;5.924;2023-02-15T02:45:00;20.20;;;12.50;;
9665;SDS011;4871;52.004;5.924;2023-02-15T02:46:05;20.20;;;12.50;;
9665;SDS011;4871;52.004;5.924;2023-02-15T02:47:02;20.20;;;12.50;;
9665;SDS011;4871;52.004;5.924;2023-02-15T02:48:05;20.20;;;12.50;;
9665;SDS011;4871;52.004;5.924;2023-02-15T02:49:00;20.20;;;12.50;;
9665;SDS011;4871;52.004;5.924;2023-02-15T02:50:07;20.20;;;12.50;;
9665;SDS011;4871;52.004;5.924;2023-02-15T02:51:00;20.20;;;12.50;;
9665;SDS011;4871;52.004;5.924;2023-02-15T02:52:06;19.10;;;12.30;;
9665;SDS011;4871;52.004;5.924;2023-02-15T02:53:00;19.10;;;12.30;;
9665;SDS011;4871;52.004;5.924;2023-02-15T02:54:05;19.10;;;12.30;;
9665;SDS011;4871;52.004;5.924;2023-02-15T02:55:00;19.10;;;12.30;;
9665;SDS011;4871;52.004;5.924;2023-02-15T02:56:06;19.10;;;12.30;;
9665;SDS011;4871;52.004;5.924;2023-02-15T02:57:01;19.10;;;12.30;;
9665;SDS011;4871;52.004;5.924;2023-02-15T02:58:08;19.10;;;12.30;;
9665;SDS011;4871;52.004;5.924;2023-02-15T02:59:01;19.10;;;12.30;;
9665;SDS011;4871;52.004;5.924;2023-02-15T03:00:04;19.10;;;12.30;;
9665;SDS011;4871;52.004;5.924;2023-02-15T03:01:02;19.10;;;12.30;;
9665;SDS011;4871;52.004;5.924;2023-02-15T03:02:07;19.10;;;12.30;;
9665;SDS011;4871;52.004;5.924;2023-02-15T03:03:05;19.10;;;12.30;;
9665;SDS011;4871;52.004;5.924;2023-02-15T03:04:07;19.10;;;12.30;;
9665;SDS011;4871;52.004;5.924;2023-02-15T03:05:04;19.10;;;12.30;;
9665;SDS011;4871;52.004;5.924;2023-02-15T03:06:05;19.10;;;12.30;;
9665;SDS011;4871;52.004;5.924;2023-02-15T03:07:00;19.10;;;12.30;;
9665;SDS011;4871;52.004;5.924;2023-02-15T03:08:05;19.10;;;12.30;;
9665;SDS011;4871;52.004;5.924;2023-02-15T03:09:01;19.10;;;12.30;;
9665;SDS011;4871;52.004;5.924;2023-02-15T03:10:04;19.10;;;12.30;;
9665;SDS011;4871;52.004;5.924;2023-02-15T03:11:00;19.10;;;12.30;;
9665;SDS011;4871;52.004;5.924;2023-02-15T03:12:04;19.10;;;12.30;;
9665;SDS011;4871;52.004;5.924;2023-02-15T03:13:00;19.10;;;12.30;;
9665;SDS011;4871;52.004;5.924;2023-02-15T03:14:04;19.10;;;12.30;;
9665;SDS011;4871;52.004;5.924;2023-02-15T03:15:01;19.10;;;12.30;;
9665;SDS011;4871;52.004;5.924;2023-02-15T03:16:14;19.10;;;12.30;;
9665;SDS011;4871;52.004;5.924;2023-02-15T03:17:00;19.10;;;12.30;;
9665;SDS011;4871;52.004;5.924;2023-02-15T03:18:06;19.10;;;12.30;;
9665;SDS011;4871;52.004;5.924;2023-02-15T03:19:01;19.10;;;12.30;;
9665;SDS011;4871;52.004;5.924;2023-02-15T03:20:07;19.10;;;12.30;;
9665;SDS011;4871;52.004;5.924;2023-02-15T03:21:00;19.10;;;12.30;;
9665;SDS011;4871;52.004;5.924;2023-02-15T03:22:10;16.40;;;10.90;;
9665;SDS011;4871;52.004;5.924;2023-02-15T03:23:01;16.40;;;10.90;;
9665;SDS011;4871;52.004;5.924;2023-02-15T03:24:06;16.40;;;10.90;;
9665;SDS011;4871;52.004;5.924;2023-02-15T03:25:02;16.40;;;10.90;;
9665;SDS011;4871;52.004;5.924;2023-02-15T03:26:04;16.40;;;10.90;;
9665;SDS011;4871;52.004;5.924;2023-02-15T03:27:00;16.40;;;10.90;;
9665;SDS011;4871;52.004;5.924;2023-02-15T03:28:05;16.40;;;10.90;;
9665;SDS011;4871;52.004;5.924;2023-02-15T03:29:00;16.40;;;10.90;;
9665;SDS011;4871;52.004;5.924;2023-02-15T03:30:00;16.40;;;10.90;;
9665;SDS011;4871;52.004;5.924;2023-02-15T03:31:06;16.40;;;10.90;;
9665;SDS011;4871;52.004;5.924;2023-02-15T03:32:00;16.40;;;10.90;;
9665;SDS011;4871;52.004;5.924;2023-02-15T03:33:07;16.40;;;10.90;;
9665;SDS011;4871;52.004;5.924;2023-02-15T03:34:01;16.40;;;10.90;;
9665;SDS011;4871;52.004;5.924;2023-02-15T03:35:06;16.40;;;10.90;;
9665;SDS011;4871;52.004;5.924;2023-02-15T03:36:01;16.40;;;10.90;;
9665;SDS011;4871;52.004;5.924;2023-02-15T03:37:06;16.40;;;10.90;;
9665;SDS011;4871;52.004;5.924;2023-02-15T03:38:00;16.40;;;10.90;;
9665;SDS011;4871;52.004;5.924;2023-02-15T03:39:07;16.40;;;10.90;;
9665;SDS011;4871;52.004;5.924;2023-02-15T03:40:10;16.40;;;10.90;;
9665;SDS011;4871;52.004;5.924;2023-02-15T03:41:12;16.40;;;10.90;;
9665;SDS011;4871;52.004;5.924;2023-02-15T03:42:02;16.40;;;10.90;;
9665;SDS011;4871;52.004;5.924;2023-02-15T03:43:08;16.40;;;10.90;;
9665;SDS011;4871;52.004;5.924;2023-02-15T03:44:00;16.40;;;10.90;;
9665;SDS011;4871;52.004;5.924;2023-02-15T03:45:05;16.40;;;10.90;;
9665;SDS011;4871;52.004;5.924;2023-02-15T03:46:01;16.40;;;10.90;;
9665;SDS011;4871;52.004;5.924;2023-02-15T03:47:05;16.40;;;10.90;;
9665;SDS011;4871;52.004;5.924;2023-02-15T03:48:00;16.40;;;10.90;;
9665;SDS011;4871;52.004;5.924;2023-02-15T03:49:06;16.40;;;10.90;;
9665;SDS011;4871;52.004;5.924;2023-02-15T03:50:01;16.40;;;10.90;;
9665;SDS011;4871;52.004;5.924;2023-02-15T03:51:17;16.40;;;10.90;;
9665;SDS011;4871;52.004;5.924;2023-02-15T03:52:00;19.00;;;11.90;;
9665;SDS011;4871;52.004;5.924;2023-02-15T03:53:06;19.00;;;11.90;;
9665;SDS011;4871;52.004;5.924;2023-02-15T03:54:00;19.00;;;11.90;;
9665;SDS011;4871;52.004;5.924;2023-02-15T03:55:04;19.00;;;11.90;;
9665;SDS011;4871;52.004;5.924;2023-02-15T03:56:00;19.00;;;11.90;;
9665;SDS011;4871;52.004;5.924;2023-02-15T03:57:18;19.00;;;11.90;;
9665;SDS011;4871;52.004;5.924;2023-02-15T03:58:10;19.00;;;11.90;;
9665;SDS011;4871;52.004;5.924;2023-02-15T03:59:14;19.00;;;11.90;;
9665;SDS011;4871;52.004;5.924;2023-02-15T04:00:12;19.00;;;11.90;;
9665;SDS011;4871;52.004;5.924;2023-02-15T04:01:17;19.00;;;11.90;;
9665;SDS011;4871;52.004;5.924;2023-02-15T04:02:03;19.00;;;11.90;;
9665;SDS011;4871;52.004;5.924;2023-02-15T04:03:08;19.00;;;11.90;;
9665;SDS011;4871;52.004;5.924;2023-02-15T04:04:01;19.00;;;11.90;;
9665;SDS011;4871;52.004;5.924;2023-02-15T04:05:05;19.00;;;11.90;;
9665;SDS011;4871;52.004;5.924;2023-02-15T04:06:00;19.00;;;11.90;;
9665;SDS011;4871;52.004;5.924;2023-02-15T04:07:06;19.00;;;11.90;;
9665;SDS011;4871;52.004;5.924;2023-02-15T04:08:00;19.00;;;11.90;;
9665;SDS011;4871;52.004;5.924;2023-02-15T04:09:16;19.00;;;11.90;;
9665;SDS011;4871;52.004;5.924;2023-02-15T04:10:10;19.00;;;11.90;;
9665;SDS011;4871;52.004;5.924;2023-02-15T04:11:05;19.00;;;11.90;;
9665;SDS011;4871;52.004;5.924;2023-02-15T04:12:00;19.00;;;11.90;;
9665;SDS011;4871;52.004;5.924;2023-02-15T04:13:06;19.00;;;11.90;;
9665;SDS011;4871;52.004;5.924;2023-02-15T04:14:10;19.00;;;11.90;;
9665;SDS011;4871;52.004;5.924;2023-02-15T04:15:16;19.00;;;11.90;;
9665;SDS011;4871;52.004;5.924;2023-02-15T04:16:03;19.00;;;11.90;;
9665;SDS011;4871;52.004;5.924;2023-02-15T04:17:05;19.00;;;11.90;;
9665;SDS011;4871;52.004;5.924;2023-02-15T04:18:02;19.00;;;11.90;;
9665;SDS011;4871;52.004;5.924;2023-02-15T04:19:15;19.00;;;11.90;;
9665;SDS011;4871;52.004;5.924;2023-02-15T04:20:10;19.00;;;11.90;;
9665;SDS011;4871;52.004;5.924;2023-02-15T04:21:14;19.00;;;11.90;;
9665;SDS011;4871;52.004;5.924;2023-02-15T04:22:10;18.60;;;11.50;;
9665;SDS011;4871;52.004;5.924;2023-02-15T04:23:14;18.60;;;11.50;;
9665;SDS011;4871;52.004;5.924;2023-02-15T04:24:10;18.60;;;11.50;;
9665;SDS011;4871;52.004;5.924;2023-02-15T04:25:14;18.60;;;11.50;;
9665;SDS011;4871;52.004;5.924;2023-02-15T04:26:02;18.60;;;11.50;;
9665;SDS011;4871;52.004;5.924;2023-02-15T04:27:05;18.60;;;11.50;;
9665;SDS011;4871;52.004;5.924;2023-02-15T04:28:00;18.60;;;11.50;;
9665;SDS011;4871;52.004;5.924;2023-02-15T04:29:06;18.60;;;11.50;;
9665;SDS011;4871;52.004;5.924;2023-02-15T04:30:00;18.60;;;11.50;;
9665;SDS011;4871;52.004;5.924;2023-02-15T04:31:04;18.60;;;11.50;;
9665;SDS011;4871;52.004;5.924;2023-02-15T04:32:00;18.60;;;11.50;;
9665;SDS011;4871;52.004;5.924;2023-02-15T04:33:04;18.60;;;11.50;;
9665;SDS011;4871;52.004;5.924;2023-02-15T04:34:00;18.60;;;11.50;;
9665;SDS011;4871;52.004;5.924;2023-02-15T04:35:05;18.60;;;11.50;;
9665;SDS011;4871;52.004;5.924;2023-02-15T04:36:00;18.60;;;11.50;;
9665;SDS011;4871;52.004;5.924;2023-02-15T04:37:05;18.60;;;11.50;;
9665;SDS011;4871;52.004;5.924;2023-02-15T04:38:00;18.60;;;11.50;;
9665;SDS011;4871;52.004;5.924;2023-02-15T04:39:05;18.60;;;11.50;;
9665;SDS011;4871;52.004;5.924;2023-02-15T04:40:00;18.60;;;11.50;;
9665;SDS011;4871;52.004;5.924;2023-02-15T04:41:05;18.60;;;11.50;;
9665;SDS011;4871;52.004;5.924;2023-02-15T04:42:00;18.60;;;11.50;;
9665;SDS011;4871;52.004;5.924;2023-02-15T04:43:05;18.60;;;11.50;;
9665;SDS011;4871;52.004;5.924;2023-02-15T04:44:00;18.60;;;11.50;;
9665;SDS011;4871;52.004;5.924;2023-02-15T04:45:05;18.60;;;11.50;;
9665;SDS011;4871;52.004;5.924;2023-02-15T04:46:00;18.60;;;11.50;;
9665;SDS011;4871;52.004;5.924;2023-02-15T04:47:05;18.60;;;11.50;;
9665;SDS011;4871;52.004;5.924;2023-02-15T04:48:00;18.60;;;11.50;;
9665;SDS011;4871;52.004;5.924;2023-02-15T04:49:05;18.60;;;11.50;;
9665;SDS011;4871;52.004;5.924;2023-02-15T04:50:00;18.60;;;11.50;;
9665;SDS011;4871;52.004;5.924;2023-02-15T04:51:06;18.60;;;11.50;;
9665;SDS011;4871;52.004;5.924;2023-02-15T04:52:00;22.10;;;13.50;;
9665;SDS011;4871;52.004;5.924;2023-02-15T04:53:04;22.10;;;13.50;;
9665;SDS011;4871;52.004;5.924;2023-02-15T04:54:00;22.10;;;13.50;;
9665;SDS011;4871;52.004;5.924;2023-02-15T04:55:06;22.10;;;13.50;;
9665;SDS011;4871;52.004;5.924;2023-02-15T04:56:00;22.10;;;13.50;;
9665;SDS011;4871;52.004;5.924;2023-02-15T04:57:00;22.10;;;13.50;;
9665;SDS011;4871;52.004;5.924;2023-02-15T04:58:00;22.10;;;13.50;;
9665;SDS011;4871;52.004;5.924;2023-02-15T04:59:00;22.10;;;13.50;;
9665;SDS011;4871;52.004;5.924;2023-02-15T05:00:00;22.10;;;13.50;;
9665;SDS011;4871;52.004;5.924;2023-02-15T05:01:00;22.10;;;13.50;;
9665;SDS011;4871;52.004;5.924;2023-02-15T05:02:07;22.10;;;13.50;;
9665;SDS011;4871;52.004;5.924;2023-02-15T05:03:00;22.10;;;13.50;;
9665;SDS011;4871;52.004;5.924;2023-02-15T05:04:07;22.10;;;13.50;;
9665;SDS011;4871;52.004;5.924;2023-02-15T05:05:00;22.10;;;13.50;;
9665;SDS011;4871;52.004;5.924;2023-02-15T05:06:07;22.10;;;13.50;;
9665;SDS011;4871;52.004;5.924;2023-02-15T05:07:00;22.10;;;13.50;;
9665;SDS011;4871;52.004;5.924;2023-02-15T05:08:06;22.10;;;13.50;;
9665;SDS011;4871;52.004;5.924;2023-02-15T05:09:00;22.10;;;13.50;;
9665;SDS011;4871;52.004;5.924;2023-02-15T05:10:07;22.10;;;13.50;;
9665;SDS011;4871;52.004;5.924;2023-02-15T05:11:00;22.10;;;13.50;;
9665;SDS011;4871;52.004;5.924;2023-02-15T05:12:00;22.10;;;13.50;;
9665;SDS011;4871;52.004;5.924;2023-02-15T05:13:00;22.10;;;13.50;;
9665;SDS011;4871;52.004;5.924;2023-02-15T05:14:00;22.10;;;13.50;;
9665;SDS011;4871;52.004;5.924;2023-02-15T05:15:07;22.10;;;13.50;;
9665;SDS011;4871;52.004;5.924;2023-02-15T05:16:00;22.10;;;13.50;;
9665;SDS011;4871;52.004;5.924;2023-02-15T05:17:01;22.10;;;13.50;;
9665;SDS011;4871;52.004;5.924;2023-02-15T05:18:01;22.10;;;13.50;;
9665;SDS011;4871;52.004;5.924;2023-02-15T05:19:07;22.10;;;13.50;;
9665;SDS011;4871;52.004;5.924;2023-02-15T05:20:00;22.10;;;13.50;;
9665;SDS011;4871;52.004;5.924;2023-02-15T05:21:06;22.10;;;13.50;;
9665;SDS011;4871;52.004;5.924;2023-02-15T05:22:00;18.70;;;11.60;;
9665;SDS011;4871;52.004;5.924;2023-02-15T05:23:07;18.70;;;11.60;;
9665;SDS011;4871;52.004;5.924;2023-02-15T05:24:00;18.70;;;11.60;;
9665;SDS011;4871;52.004;5.924;2023-02-15T05:25:17;18.70;;;11.60;;
9665;SDS011;4871;52.004;5.924;2023-02-15T05:26:10;18.70;;;11.60;;
9665;SDS011;4871;52.004;5.924;2023-02-15T05:27:16;18.70;;;11.60;;
9665;SDS011;4871;52.004;5.924;2023-02-15T05:28:10;18.70;;;11.60;;
9665;SDS011;4871;52.004;5.924;2023-02-15T05:29:00;18.70;;;11.60;;
9665;SDS011;4871;52.004;5.924;2023-02-15T05:30:00;18.70;;;11.60;;
9665;SDS011;4871;52.004;5.924;2023-02-15T05:31:08;18.70;;;11.60;;
9665;SDS011;4871;52.004;5.924;2023-02-15T05:32:00;18.70;;;11.60;;
9665;SDS011;4871;52.004;5.924;2023-02-15T05:33:07;18.70;;;11.60;;
9665;SDS011;4871;52.004;5.924;2023-02-15T05:34:00;18.70;;;11.60;;
9665;SDS011;4871;52.004;5.924;2023-02-15T05:35:07;18.70;;;11.60;;
9665;SDS011;4871;52.004;5.924;2023-02-15T05:36:00;18.70;;;11.60;;
9665;SDS011;4871;52.004;5.924;2023-02-15T05:37:00;18.70;;;11.60;;
9665;SDS011;4871;52.004;5.924;2023-02-15T05:38:00;18.70;;;11.60;;
9665;SDS011;4871;52.004;5.924;2023-02-15T05:39:00;18.70;;;11.60;;
9665;SDS011;4871;52.004;5.924;2023-02-15T05:40:00;18.70;;;11.60;;
9665;SDS011;4871;52.004;5.924;2023-02-15T05:41:07;18.70;;;11.60;;
9665;SDS011;4871;52.004;5.924;2023-02-15T05:42:00;18.70;;;11.60;;
9665;SDS011;4871;52.004;5.924;2023-02-15T05:43:07;18.70;;;11.60;;
9665;SDS011;4871;52.004;5.924;2023-02-15T05:44:00;18.70;;;11.60;;
9665;SDS011;4871;52.004;5.924;2023-02-15T05:45:07;18.70;;;11.60;;
9665;SDS011;4871;52.004;5.924;2023-02-15T05:46:00;18.70;;;11.60;;
9665;SDS011;4871;52.004;5.924;2023-02-15T05:47:07;18.70;;;11.60;;
9665;SDS011;4871;52.004;5.924;2023-02-15T05:48:00;18.70;;;11.60;;
9665;SDS011;4871;52.004;5.924;2023-02-15T05:49:00;18.70;;;11.60;;
9665;SDS011;4871;52.004;5.924;2023-02-15T05:50:00;18.70;;;11.60;;
9665;SDS011;4871;52.004;5.924;2023-02-15T05:51:08;18.70;;;11.60;;
9665;SDS011;4871;52.004;5.924;2023-02-15T05:52:00;20.40;;;11.90;;
9665;SDS011;4871;52.004;5.924;2023-02-15T05:53:07;20.40;;;11.90;;
9665;SDS011;4871;52.004;5.924;2023-02-15T05:54:00;20.40;;;11.90;;
9665;SDS011;4871;52.004;5.924;2023-02-15T05:55:00;20.40;;;11.90;;
9665;SDS011;4871;52.004;5.924;2023-02-15T05:56:00;20.40;;;11.90;;
9665;SDS011;4871;52.004;5.924;2023-02-15T05:57:00;20.40;;;11.90;;
9665;SDS011;4871;52.004;5.924;2023-02-15T05:58:00;20.40;;;11.90;;
9665;SDS011;4871;52.004;5.924;2023-02-15T05:59:00;20.40;;;11.90;;
9665;SDS011;4871;52.004;5.924;2023-02-15T06:00:00;20.40;;;11.90;;
9665;SDS011;4871;52.004;5.924;2023-02-15T06:01:07;20.40;;;11.90;;
9665;SDS011;4871;52.004;5.924;2023-02-15T06:02:00;20.40;;;11.90;;
9665;SDS011;4871;52.004;5.924;2023-02-15T06:03:00;20.40;;;11.90;;